Time;durP1;ratioP1;P1;durP2;ratioP2;P2;SDS_P1;SDS_P2;PMS_P1;PMS_P2;Temp;Humidity;BMP_temperature;BMP_pressure;BME280_temperature;BME280_humidity;BME280_pressure;Samples;Min_cycle;Max_cycle;Signal;HPM_P1;HPM_P2
2022/02/17 00:02:11;;;;;;;45.72;26.10;;;;;;;9.10;47.94;94870.19;4954482;29;20294;-69
2022/02/17 00:04:38;;;;;;;43.58;27.13;;;;;;;8.77;48.47;94886.06;4953430;29;20199;-70
2022/02/17 00:07:05;;;;;;;42.95;27.20;;;;;;;8.78;47.96;94869.34;4936612;29;20219;-71
2022/02/17 00:09:32;;;;;;;49.70;29.48;;;;;;;8.98;48.25;94882.63;4953274;29;20199;-69
2022/02/17 00:11:59;;;;;;;56.83;31.20;;;;;;;8.12;49.92;94885.16;4952943;29;20211;-71
2022/02/17 00:14:27;;;;;;;44.90;28.95;;;;;;;8.40;48.87;94887.69;4955220;29;20302;-71
2022/02/17 00:16:53;;;;;;;53.40;33.17;;;;;;;8.01;49.36;94839.13;4954367;29;20659;-72
2022/02/17 00:19:21;;;;;;;61.15;35.40;;;;;;;8.54;48.82;94886.28;4953098;29;20200;-70
2022/02/17 00:21:49;;;;;;;67.35;40.10;;;;;;;8.56;48.65;94881.59;4936473;29;20215;-72
2022/02/17 00:24:17;;;;;;;73.78;41.05;;;;;;;8.65;48.68;94887.22;4953099;29;20196;-70
2022/02/17 00:26:44;;;;;;;66.32;38.30;;;;;;;8.38;48.87;94894.16;4952434;29;20212;-70
2022/02/17 00:29:11;;;;;;;78.18;44.45;;;;;;;8.25;49.57;94894.53;4952080;29;20196;-72
2022/02/17 00:31:39;;;;;;;88.63;47.58;;;;;;;8.30;48.78;94882.34;4952512;29;20188;-71
2022/02/17 00:34:08;;;;;;;98.50;49.75;;;;;;;8.10;49.24;94892.47;4951456;29;20200;-71
2022/02/17 00:36:36;;;;;;;111.20;58.53;;;;;;;8.21;49.74;94881.13;4935890;29;20203;-71
2022/02/17 00:39:05;;;;;;;92.55;51.47;;;;;;;8.15;49.24;94869.03;4952557;29;20204;-70
2022/02/17 00:41:32;;;;;;;110.65;61.38;;;;;;;8.19;49.01;94870.16;4952484;29;20199;-71
2022/02/17 00:43:59;;;;;;;130.15;71.22;;;;;;;8.18;49.26;94873.78;4951464;29;20210;-71
2022/02/17 00:46:29;;;;;;;126.13;67.03;;;;;;;7.94;49.49;94869.78;4953132;29;20216;-72
2022/02/17 00:48:56;;;;;;;126.35;67.72;;;;;;;8.02;49.65;94864.16;4951727;29;20687;-71
2022/02/17 00:51:23;;;;;;;137.43;72.05;;;;;;;7.94;49.06;94867.16;4936171;29;20251;-70
2022/02/17 00:53:51;;;;;;;137.63;73.38;;;;;;;8.00;49.51;94861.00;4951883;28;20295;-71
2022/02/17 00:56:17;;;;;;;125.93;69.32;;;;;;;7.84;49.48;94851.38;4952999;29;20675;-71
2022/02/17 00:58:49;;;;;;;129.75;70.70;;;;;;;8.08;49.22;94853.53;4935742;29;20218;-70
2022/02/17 01:01:25;;;;;;;133.10;70.03;;;;;;;8.11;49.02;94870.53;4951021;29;20212;-71
2022/02/17 01:03:52;;;;;;;124.05;67.50;;;;;;;8.06;49.35;94873.88;4935483;29;20204;-71
2022/02/17 01:06:19;;;;;;;111.30;60.47;;;;;;;7.97;49.95;94864.88;4952967;29;21191;-72
2022/02/17 01:08:47;;;;;;;117.63;63.30;;;;;;;7.75;49.98;94850.22;4951429;29;20210;-70
2022/02/17 01:11:21;;;;;;;117.72;63.47;;;;;;;7.77;50.15;94848.16;4952819;29;20196;-72
2022/02/17 01:13:48;;;;;;;114.55;64.28;;;;;;;7.74;49.75;94846.00;4951850;29;20231;-75
2022/02/17 01:16:14;;;;;;;115.15;62.17;;;;;;;7.54;50.02;94845.69;4935357;29;20211;-71
2022/02/17 01:18:41;;;;;;;120.53;66.90;;;;;;;7.73;49.92;94849.66;4952111;29;20204;-72
2022/02/17 01:21:15;;;;;;;115.70;60.85;;;;;;;7.80;49.74;94843.25;4935082;29;20203;-71
2022/02/17 01:23:43;;;;;;;119.43;60.25;;;;;;;7.78;50.02;94841.91;4950514;29;20722;-71
2022/02/17 01:26:13;;;;;;;108.32;58.33;;;;;;;6.99;51.92;94832.53;4950835;29;20204;-72
2022/02/17 01:28:56;;;;;;;107.63;58.00;;;;;;;7.17;51.61;94835.72;4934606;29;20212;-71
2022/02/17 01:31:28;;;;;;;109.70;58.15;;;;;;;7.46;50.72;94827.84;4950153;29;20279;-71
2022/02/17 01:34:04;;;;;;;115.57;60.92;;;;;;;7.36;50.64;94822.47;4934443;29;20204;-71
2022/02/17 01:36:35;;;;;;;104.60;56.97;;;;;;;7.68;50.26;94826.13;4951939;29;20675;-71
2022/02/17 01:39:03;;;;;;;81.43;45.10;;;;;;;7.78;50.30;94815.81;4935005;29;20200;-71
2022/02/17 01:41:30;;;;;;;97.85;53.92;;;;;;;6.56;52.60;94804.44;4950578;29;20208;-71
2022/02/17 01:44:03;;;;;;;87.85;47.60;;;;;;;6.53;54.01;94812.69;4934214;29;20679;-71
2022/02/17 01:46:35;;;;;;;74.43;42.17;;;;;;;7.02;52.56;94806.84;4951879;29;20253;-71
2022/02/17 01:49:04;;;;;;;73.63;41.92;;;;;;;7.28;52.27;94821.03;4951752;29;20204;-69
2022/02/17 01:51:32;;;;;;;72.53;39.90;;;;;;;7.11;52.10;94805.41;4934778;29;20707;-71
2022/02/17 01:53:59;;;;;;;65.18;34.78;;;;;;;7.51;51.09;94807.06;4953121;29;20656;-71
2022/02/17 01:56:32;;;;;;;72.82;41.50;;;;;;;7.39;50.20;94781.09;4936463;29;20196;-70
2022/02/17 01:59:07;;;;;;;61.22;35.20;;;;;;;7.54;50.68;94799.56;4935233;29;20200;-70
2022/02/17 02:01:39;;;;;;;63.40;36.55;;;;;;;7.69;50.07;94807.63;4934357;29;20222;-70
2022/02/17 02:04:06;;;;;;;66.15;37.63;;;;;;;7.69;50.29;94809.41;4933885;29;20203;-70
2022/02/17 02:06:33;;;;;;;54.25;33.00;;;;;;;7.72;50.02;94803.75;4933962;29;20196;-70
2022/02/17 02:09:06;;;;;;;69.63;40.08;;;;;;;7.78;49.64;94789.72;4936953;29;20207;-71
2022/02/17 02:11:48;;;;;;;80.97;47.15;;;;;;;7.93;49.28;94793.34;4950021;29;20211;-70
2022/02/17 02:14:17;;;;;;;79.93;45.33;;;;;;;7.66;49.61;94802.09;4949534;29;20283;-71
2022/02/17 02:16:46;;;;;;;79.60;44.97;;;;;;;7.67;49.71;94793.22;4933866;29;20226;-71
2022/02/17 02:19:20;;;;;;;85.10;47.28;;;;;;;7.77;49.84;94814.25;4934004;29;20299;-70
2022/02/17 02:21:50;;;;;;;79.93;46.10;;;;;;;7.38;50.81;94799.56;4949840;29;20231;-70
2022/02/17 02:24:17;;;;;;;80.95;44.13;;;;;;;7.39;50.48;94811.59;4949754;29;20196;-71
2022/02/17 02:26:48;;;;;;;76.85;45.30;;;;;;;7.59;50.14;94806.69;4949961;29;20235;-70
2022/02/17 02:29:21;;;;;;;79.70;44.17;;;;;;;7.53;50.06;94799.81;4949637;29;20258;-72
2022/02/17 02:31:49;;;;;;;86.05;47.97;;;;;;;7.58;50.05;94805.09;4933772;29;20234;-70
2022/02/17 02:34:15;;;;;;;70.22;41.55;;;;;;;6.24;53.77;94803.28;4949492;29;20218;-70
2022/02/17 02:36:42;;;;;;;75.97;43.15;;;;;;;6.98;52.32;94803.13;4951540;29;20207;-71
2022/02/17 02:39:09;;;;;;;62.97;35.42;;;;;;;7.22;51.51;94811.59;4934050;29;20275;-70
2022/02/17 02:41:51;;;;;;;53.17;31.00;;;;;;;7.41;50.48;94809.53;4933449;29;20564;-70
2022/02/17 02:44:18;;;;;;;52.75;32.25;;;;;;;7.34;50.09;94799.25;4933727;29;20224;-70
2022/02/17 02:46:51;;;;;;;57.95;35.80;;;;;;;7.47;50.14;94790.31;4933435;29;20258;-70
2022/02/17 02:49:19;;;;;;;65.47;36.70;;;;;;;7.47;50.09;94787.72;4933262;29;20203;-71
2022/02/17 02:51:47;;;;;;;54.70;32.78;;;;;;;7.35;51.44;94802.66;4933338;29;20210;-70
2022/02/17 02:54:16;;;;;;;55.13;34.08;;;;;;;6.84;52.63;94809.63;4949678;29;20200;-71
2022/02/17 02:56:43;;;;;;;58.08;31.27;;;;;;;5.78;55.83;94818.94;4933198;29;20211;-71
2022/02/17 02:59:11;;;;;;;52.70;30.98;;;;;;;6.59;53.82;94819.59;4933331;29;20306;-71
2022/02/17 03:01:40;;;;;;;54.55;30.70;;;;;;;6.76;53.07;94801.41;4932494;29;20208;-70
2022/02/17 03:04:07;;;;;;;48.95;30.02;;;;;;;7.04;51.63;94802.16;4950684;29;20204;-69
2022/02/17 03:06:37;;;;;;;49.35;30.80;;;;;;;7.24;51.29;94799.09;4949724;29;20196;-70
2022/02/17 03:09:04;;;;;;;52.28;30.98;;;;;;;6.94;51.64;94804.59;4933173;29;20302;-70
2022/02/17 03:11:32;;;;;;;59.25;33.38;;;;;;;7.02;51.50;94817.25;4932934;29;20200;-72
2022/02/17 03:13:59;;;;;;;44.33;27.65;;;;;;;6.70;52.93;94818.75;4933612;29;20231;-71
2022/02/17 03:16:28;;;;;;;45.30;25.25;;;;;;;5.50;56.19;94821.44;4933859;29;20262;-69
2022/02/17 03:18:56;;;;;;;51.88;30.42;;;;;;;6.13;55.35;94794.50;4937135;29;20756;-70
2022/02/17 03:21:23;;;;;;;48.13;29.52;;;;;;;6.74;53.15;94787.81;4954398;29;20200;-71
2022/02/17 03:23:51;;;;;;;47.17;28.73;;;;;;;6.68;52.82;94789.56;4952822;29;20255;-70
2022/02/17 03:26:20;;;;;;;47.95;27.50;;;;;;;6.39;54.08;94798.38;4936883;29;20206;-70
2022/02/17 03:28:54;;;;;;;48.85;28.23;;;;;;;6.73;52.99;94787.03;4935956;29;20230;-71
2022/02/17 03:31:23;;;;;;;50.05;28.92;;;;;;;6.83;51.90;94770.78;4954418;29;20196;-71
2022/02/17 03:33:55;;;;;;;54.63;29.75;;;;;;;6.77;52.91;94767.31;4936526;29;20668;-70
2022/02/17 03:36:24;;;;;;;52.65;29.83;;;;;;;7.00;52.57;94782.84;4936399;29;20599;-70
2022/02/17 03:38:58;;;;;;;48.47;27.77;;;;;;;7.17;51.59;94762.78;4952645;29;20279;-70
2022/02/17 03:41:42;;;;;;;50.30;29.80;;;;;;;7.11;51.45;94758.53;4939867;29;20215;-71
2022/02/17 03:44:11;;;;;;;47.53;28.50;;;;;;;7.13;50.74;94764.25;4942549;29;20215;-70
2022/02/17 03:46:42;;;;;;;58.08;30.08;;;;;;;6.77;53.16;94780.34;4943563;29;20212;-71
2022/02/17 03:49:11;;;;;;;49.70;28.67;;;;;;;6.71;52.88;94773.47;4942903;29;20223;-71
2022/02/17 03:51:39;;;;;;;47.25;28.95;;;;;;;7.07;52.29;94788.69;4938694;29;20233;-71
2022/02/17 03:54:06;;;;;;;53.90;31.67;;;;;;;7.11;52.32;94789.78;4936494;29;20200;-69
2022/02/17 03:56:39;;;;;;;51.55;31.25;;;;;;;7.30;51.88;94773.91;4954377;29;20184;-71
2022/02/17 03:59:26;;;;;;;54.03;29.77;;;;;;;7.10;51.60;94780.38;4939823;29;20204;-71
2022/02/17 04:01:52;;;;;;;52.80;30.05;;;;;;;7.26;51.83;94785.84;4938318;29;20202;-71
2022/02/17 04:04:22;;;;;;;48.50;29.65;;;;;;;7.54;51.07;94776.09;4953756;29;20727;-71
2022/02/17 04:06:49;;;;;;;47.83;28.58;;;;;;;7.49;50.58;94796.09;4952959;29;20639;-71
2022/02/17 04:09:17;;;;;;;48.83;29.67;;;;;;;7.40;50.53;94800.13;4952166;29;20232;-72
2022/02/17 04:11:44;;;;;;;60.15;31.67;;;;;;;7.35;50.71;94795.63;4936075;29;20215;-70
2022/02/17 04:14:12;;;;;;;74.90;43.70;;;;;;;7.32;50.35;94824.00;4951783;29;20744;-70
2022/02/17 04:16:47;;;;;;;91.90;54.13;;;;;;;7.32;50.08;94824.75;4936295;29;20291;-70
2022/02/17 04:19:34;;;;;;;102.07;59.38;;;;;;;7.10;50.71;94819.47;4952743;29;20219;-70
2022/02/17 04:22:07;;;;;;;103.43;60.03;;;;;;;7.06;50.26;94817.56;4936076;29;20203;-70
2022/02/17 04:24:39;;;;;;;94.32;57.58;;;;;;;6.96;50.53;94805.16;4951680;29;20211;-70
2022/02/17 04:27:07;;;;;;;100.68;60.25;;;;;;;7.11;50.13;94809.84;4936145;29;20215;-70
2022/02/17 04:29:35;;;;;;;101.32;59.00;;;;;;;6.99;50.30;94801.28;4950573;28;20651;-69
2022/02/17 04:32:07;;;;;;;107.70;63.08;;;;;;;7.07;50.39;94799.09;4935541;29;20819;-71
2022/02/17 04:34:35;;;;;;;107.22;62.65;;;;;;;6.74;51.17;94783.41;4935948;29;20210;-70
2022/02/17 04:37:10;;;;;;;109.50;61.13;;;;;;;6.53;51.49;94771.03;4936177;29;20218;-70
2022/02/17 04:39:37;;;;;;;100.63;57.72;;;;;;;6.49;51.97;94792.59;4951536;29;20200;-70
2022/02/17 04:42:20;;;;;;;89.75;52.78;;;;;;;6.50;51.89;94797.56;4935375;29;20207;-71
2022/02/17 04:44:54;;;;;;;92.10;56.47;;;;;;;6.81;51.33;94789.25;4935597;29;20207;-70
2022/02/17 04:47:23;;;;;;;90.13;53.95;;;;;;;6.95;50.97;94795.75;4935919;29;20322;-70
2022/02/17 04:49:51;;;;;;;82.50;52.90;;;;;;;6.88;50.61;94784.69;4935570;29;20571;-70
2022/02/17 04:52:19;;;;;;;85.35;52.28;;;;;;;6.03;52.72;94796.09;4935343;29;20211;-69
2022/02/17 04:54:47;;;;;;;82.50;49.50;;;;;;;5.38;54.41;94781.66;4935313;29;20290;-70
2022/02/17 04:57:15;;;;;;;79.53;49.10;;;;;;;5.91;53.47;94766.75;4951624;29;20207;-72
2022/02/17 04:59:42;;;;;;;77.63;48.53;;;;;;;6.12;52.75;94779.13;4935281;29;20639;-72
2022/02/17 05:02:09;;;;;;;79.95;48.60;;;;;;;6.30;52.48;94772.94;4951801;28;20204;-72
2022/02/17 05:04:54;;;;;;;79.50;47.83;;;;;;;6.47;52.03;94766.78;4951058;29;20204;-70
2022/02/17 05:07:23;;;;;;;73.35;46.47;;;;;;;5.94;53.63;94769.69;4935621;29;20227;-68
2022/02/17 05:09:51;;;;;;;75.68;45.00;;;;;;;6.48;52.51;94768.34;4934725;29;20592;-70
2022/02/17 05:12:25;;;;;;;76.53;45.80;;;;;;;6.59;51.78;94770.13;4934975;29;20660;-68
2022/02/17 05:14:53;;;;;;;75.28;45.10;;;;;;;6.02;53.92;94768.53;4934241;29;20246;-69
2022/02/17 05:17:21;;;;;;;78.18;45.50;;;;;;;6.46;52.79;94778.22;4950974;29;20215;-68
2022/02/17 05:19:48;;;;;;;86.80;48.17;;;;;;;6.28;53.42;94770.59;4934380;29;20231;-70
2022/02/17 05:22:22;;;;;;;86.63;47.95;;;;;;;6.22;53.25;94774.13;4934789;29;20203;-70
2022/02/17 05:25:04;;;;;;;78.03;44.80;;;;;;;6.71;52.42;94760.47;4951806;28;20203;-68
2022/02/17 05:27:46;;;;;;;83.38;45.80;;;;;;;6.76;51.93;94755.34;4949132;29;20227;-69
2022/02/17 05:30:40;;;;;;;84.90;49.30;;;;;;;6.59;52.47;94757.09;4950990;29;20666;-70
2022/02/17 05:33:27;;;;;;;83.70;47.67;;;;;;;6.72;51.99;94749.00;4912764;29;20215;-69
2022/02/17 05:36:09;;;;;;;77.65;42.35;;;;;;;6.79;52.08;94749.66;4934630;29;20229;-69
2022/02/17 05:38:42;;;;;;;65.75;38.28;;;;;;;6.75;51.60;94743.31;4934088;29;20206;-69
2022/02/17 05:41:28;;;;;;;61.65;38.05;;;;;;;7.01;51.53;94758.34;4952125;28;20198;-70
2022/02/17 05:43:56;;;;;;;71.32;39.63;;;;;;;6.87;51.68;94757.09;4951732;29;20295;-71
2022/02/17 05:46:23;;;;;;;66.63;37.65;;;;;;;6.90;51.47;94754.00;4951817;29;20231;-71
2022/02/17 05:48:52;;;;;;;60.85;37.38;;;;;;;6.94;51.68;94760.31;4951236;29;20220;-74
2022/02/17 05:51:19;;;;;;;72.55;45.00;;;;;;;6.73;52.75;94760.22;4950972;29;20287;-72
2022/02/17 05:53:47;;;;;;;78.18;47.30;;;;;;;7.45;56.46;94753.28;4952698;29;20196;-71
2022/02/17 05:56:14;;;;;;;63.70;39.30;;;;;;;7.58;53.29;94745.13;4956072;29;20199;-68
2022/02/17 05:58:41;;;;;;;58.60;36.72;;;;;;;7.66;51.34;94749.94;4951110;29;20211;-69
2022/02/17 06:01:08;;;;;;;63.55;39.55;;;;;;;7.63;51.36;94753.81;4951385;29;20188;-69
2022/02/17 06:03:35;;;;;;;70.05;40.35;;;;;;;7.59;51.28;94754.53;4951020;29;20319;-68
2022/02/17 06:06:02;;;;;;;64.85;39.20;;;;;;;6.63;52.66;94770.44;4954595;29;20204;-69
2022/02/17 06:08:29;;;;;;;59.05;35.58;;;;;;;6.69;53.16;94775.53;4951308;29;20228;-69
2022/02/17 06:10:56;;;;;;;61.28;35.47;;;;;;;7.07;52.18;94767.03;4951569;29;20243;-69
2022/02/17 06:13:23;;;;;;;57.30;36.40;;;;;;;7.29;51.31;94759.28;4950464;28;20236;-72
2022/02/17 06:15:52;;;;;;;66.70;43.13;;;;;;;7.30;52.26;94777.28;4951736;29;20196;-69
2022/02/17 06:18:20;;;;;;;56.35;36.72;;;;;;;7.60;51.74;94780.38;4933756;29;20303;-68
2022/02/17 06:20:48;;;;;;;53.47;35.00;;;;;;;7.53;51.97;94786.78;4951979;29;20198;-68
2022/02/17 06:23:15;;;;;;;63.38;33.92;;;;;;;7.67;51.02;94782.78;4951841;29;20196;-68
2022/02/17 06:25:42;;;;;;;53.33;31.13;;;;;;;7.51;51.83;94794.84;4951275;29;20176;-71
2022/02/17 06:28:09;;;;;;;48.13;30.52;;;;;;;7.65;51.36;94790.06;4951158;28;20606;-74
2022/02/17 06:30:37;;;;;;;49.13;30.40;;;;;;;7.44;51.69;94793.41;4951059;29;20573;-71
2022/02/17 06:33:07;;;;;;;41.88;27.27;;;;;;;7.73;51.49;94800.09;4950236;29;20701;-71
2022/02/17 06:35:36;;;;;;;43.00;28.67;;;;;;;8.08;50.93;94797.97;4949065;29;20204;-71
2022/02/17 06:38:04;;;;;;;64.30;35.28;;;;;;;8.01;50.34;94787.69;4934330;29;20563;-69
2022/02/17 06:40:32;;;;;;;60.33;35.78;;;;;;;8.32;50.65;94807.16;4950947;29;20274;-71
2022/02/17 06:43:05;;;;;;;60.80;36.10;;;;;;;8.36;49.90;94804.88;4951360;29;20259;-71
2022/02/17 06:45:34;;;;;;;66.88;39.25;;;;;;;8.21;50.63;94793.16;4951097;29;20231;-71
2022/02/17 06:48:03;;;;;;;77.70;43.67;;;;;;;8.38;50.67;94793.13;4951159;29;20223;-70
2022/02/17 06:50:32;;;;;;;75.28;43.83;;;;;;;8.02;50.52;94783.28;4950682;29;20212;-70
2022/02/17 06:53:04;;;;;;;68.28;40.90;;;;;;;8.30;50.04;94787.56;4953572;28;20215;-70
2022/02/17 06:55:32;;;;;;;66.38;40.55;;;;;;;8.34;50.23;94789.44;4955466;29;20311;-69
2022/02/17 06:58:00;;;;;;;60.88;39.08;;;;;;;8.31;50.33;94805.59;4955329;29;20231;-71
2022/02/17 07:00:28;;;;;;;64.25;40.35;;;;;;;8.56;49.90;94792.81;4954731;29;20634;-71
2022/02/17 07:02:56;;;;;;;109.00;62.22;;;;;;;8.65;50.37;94801.78;4955062;29;20204;-70
2022/02/17 07:05:24;;;;;;;134.52;75.93;;;;;;;8.42;50.39;94796.84;4956894;29;20195;-71
2022/02/17 07:07:52;;;;;;;145.80;82.07;;;;;;;8.65;49.87;94786.13;4957831;29;20261;-70
2022/02/17 07:10:54;;;;;;;143.30;81.70;;;;;;;8.79;49.78;94782.09;4954028;29;20202;-70
2022/02/17 07:13:06;;;;;;;114.38;67.95;;;;;;;8.56;50.44;94774.53;4954377;29;20296;-71
2022/02/17 07:15:36;;;;;;;102.22;61.33;;;;;;;8.67;50.23;94778.84;4954740;29;20206;-70
2022/02/17 07:18:08;;;;;;;96.38;55.90;;;;;;;8.59;50.07;94776.69;4954096;29;20299;-70
2022/02/17 07:20:40;;;;;;;83.32;51.90;;;;;;;8.61;50.04;94766.75;4954299;29;20310;-70
2022/02/17 07:23:10;;;;;;;86.20;49.45;;;;;;;8.59;50.12;94755.00;4954378;29;20235;-71
2022/02/17 07:25:37;;;;;;;77.97;49.30;;;;;;;8.80;49.67;94761.97;4954065;29;20245;-70
2022/02/17 07:28:05;;;;;;;76.80;48.53;;;;;;;9.03;49.13;94767.69;4954436;29;20212;-71
2022/02/17 07:30:34;;;;;;;75.20;45.70;;;;;;;8.81;49.75;94763.56;4954010;29;20671;-71
2022/02/17 07:33:02;;;;;;;73.70;48.35;;;;;;;8.91;49.86;94754.00;4953847;29;20211;-70
2022/02/17 07:35:30;;;;;;;84.03;50.60;;;;;;;9.21;49.77;94741.16;4954139;29;20590;-72
2022/02/17 07:37:58;;;;;;;74.93;45.40;;;;;;;8.84;49.87;94732.50;4937329;29;20200;-71
2022/02/17 07:40:25;;;;;;;71.95;44.50;;;;;;;9.25;50.11;94725.00;4953855;29;20247;-70
2022/02/17 07:42:52;;;;;;;63.20;41.45;;;;;;;9.50;49.07;94719.94;4953988;29;20546;-70
2022/02/17 07:45:21;;;;;;;65.65;42.08;;;;;;;9.59;49.64;94708.75;4954215;29;20199;-74
2022/02/17 07:47:52;;;;;;;68.40;45.72;;;;;;;9.67;50.07;94705.63;4954429;29;20579;-71
2022/02/17 07:50:20;;;;;;;73.50;45.67;;;;;;;9.62;49.92;94717.88;4954094;29;20304;-71
2022/02/17 07:52:47;;;;;;;78.10;49.95;;;;;;;9.69;49.54;94698.31;4953763;29;20649;-70
2022/02/17 07:55:14;;;;;;;74.00;46.90;;;;;;;9.83;49.37;94670.66;4953357;29;20192;-72
2022/02/17 07:57:41;;;;;;;74.35;45.50;;;;;;;10.02;48.90;94694.53;4937154;29;20202;-70
2022/02/17 08:00:11;;;;;;;72.28;46.33;;;;;;;10.24;48.54;94697.03;4954119;29;20212;-71
2022/02/17 08:02:42;;;;;;;72.53;44.25;;;;;;;10.31;49.02;94685.22;4953717;28;20196;-71
2022/02/17 08:05:12;;;;;;;71.63;42.45;;;;;;;10.42;48.98;94681.59;4952905;29;20215;-70
2022/02/17 08:07:40;;;;;;;74.60;44.50;;;;;;;10.40;48.57;94678.44;4952639;29;20200;-71
2022/02/17 08:10:07;;;;;;;67.47;41.25;;;;;;;10.63;47.94;94677.19;4953177;29;21043;-71
2022/02/17 08:12:44;;;;;;;66.43;41.17;;;;;;;10.69;47.66;94671.66;4953407;29;20199;-70
2022/02/17 08:15:11;;;;;;;72.30;39.03;;;;;;;11.02;47.34;94665.91;4953288;29;21178;-70
2022/02/17 08:17:38;;;;;;;60.97;38.58;;;;;;;10.78;47.55;94678.00;4953353;29;20448;-71
2022/02/17 08:20:06;;;;;;;54.50;36.57;;;;;;;10.86;47.16;94672.22;4952774;29;20208;-72
2022/02/17 08:22:33;;;;;;;53.22;36.10;;;;;;;11.00;46.81;94675.88;4952932;29;20454;-70
2022/02/17 08:25:00;;;;;;;58.37;36.53;;;;;;;11.35;46.60;94667.19;4952923;29;20582;-71
2022/02/17 08:27:27;;;;;;;56.13;36.87;;;;;;;11.47;46.13;94674.78;4953644;29;20507;-70
2022/02/17 08:29:54;;;;;;;56.53;38.30;;;;;;;11.59;45.96;94673.44;4952895;29;20494;-71
2022/02/17 08:32:22;;;;;;;56.33;36.60;;;;;;;11.65;45.62;94669.00;4952946;29;20449;-71
2022/02/17 08:34:49;;;;;;;56.83;36.53;;;;;;;11.31;45.64;94647.81;4953301;29;20455;-71
2022/02/17 08:37:16;;;;;;;58.83;36.57;;;;;;;11.82;45.35;94664.22;4953531;29;20452;-71
2022/02/17 08:39:43;;;;;;;54.27;35.77;;;;;;;11.87;45.22;94657.13;4952594;29;20430;-70
2022/02/17 08:42:09;;;;;;;53.47;33.47;;;;;;;12.29;44.77;94654.03;4953207;29;20439;-70
2022/02/17 08:44:36;;;;;;;49.33;33.67;;;;;;;12.38;44.74;94662.91;4952448;29;20432;-71
2022/02/17 08:47:04;;;;;;;50.23;33.77;;;;;;;12.10;44.54;94613.66;4953139;29;20958;-70
2022/02/17 08:49:30;;;;;;;55.70;33.33;;;;;;;12.77;43.68;94650.53;4952734;29;20493;-71
2022/02/17 08:51:57;;;;;;;47.20;32.80;;;;;;;12.44;44.05;94653.94;4952672;29;20440;-69
2022/02/17 08:54:27;;;;;;;44.13;30.77;;;;;;;12.74;43.53;94630.06;4952584;29;20830;-71
2022/02/17 08:56:54;;;;;;;49.10;31.27;;;;;;;12.67;43.52;94632.22;4953180;29;20835;-70
2022/02/17 08:59:21;;;;;;;51.57;34.50;;;;;;;12.87;43.17;94624.19;4952226;29;20505;-72
2022/02/17 09:01:54;;;;;;;54.40;33.70;;;;;;;12.68;43.02;94631.16;4952882;29;20474;-70
2022/02/17 09:04:21;;;;;;;63.67;34.27;;;;;;;13.17;43.64;94621.31;4952214;29;20488;-70
2022/02/17 09:06:48;;;;;;;48.33;33.93;;;;;;;13.13;42.48;94596.66;4952706;29;20450;-70
2022/02/17 09:09:16;;;;;;;59.80;34.60;;;;;;;13.40;42.91;94611.88;4952334;29;20575;-70
2022/02/17 09:11:43;;;;;;;54.90;36.47;;;;;;;13.48;42.59;94600.75;4952341;29;20440;-71
2022/02/17 09:14:10;;;;;;;56.80;36.70;;;;;;;13.02;42.61;94616.22;4951857;28;20467;-70
2022/02/17 09:16:38;;;;;;;61.97;36.57;;;;;;;13.54;42.22;94610.16;4952324;29;20970;-70
2022/02/17 09:19:05;;;;;;;57.33;36.27;;;;;;;13.88;41.49;94605.56;4952184;29;20481;-71
2022/02/17 09:21:33;;;;;;;58.53;37.20;;;;;;;13.98;41.36;94596.72;4952528;29;20455;-71
2022/02/17 09:24:00;;;;;;;58.80;34.93;;;;;;;14.38;41.03;94590.94;4951642;29;20443;-71
2022/02/17 09:26:29;;;;;;;49.40;35.33;;;;;;;14.53;41.14;94595.97;4952330;29;20432;-70
2022/02/17 09:28:56;;;;;;;50.77;33.07;;;;;;;14.62;40.62;94604.81;4951798;29;20495;-70
2022/02/17 09:31:43;;;;;;;60.77;34.53;;;;;;;14.91;39.98;94594.84;4952486;29;21008;-72
2022/02/17 09:34:11;;;;;;;46.17;32.43;;;;;;;15.09;39.57;94588.72;4952043;29;20884;-70
2022/02/17 09:36:38;;;;;;;50.60;32.17;;;;;;;15.21;39.32;94599.63;4953127;29;20455;-69
2022/02/17 09:39:06;;;;;;;47.90;31.83;;;;;;;15.98;39.01;94581.28;4954107;29;20439;-70
2022/02/17 09:41:36;;;;;;;46.17;33.37;;;;;;;15.97;38.68;94598.19;4952175;29;20507;-69
2022/02/17 09:44:08;;;;;;;51.20;33.70;;;;;;;15.84;38.37;94596.34;4956202;29;20424;-71
2022/02/17 09:46:45;;;;;;;48.53;34.23;;;;;;;16.15;38.05;94586.72;4955562;29;20449;-71
2022/02/17 09:49:21;;;;;;;53.80;34.47;;;;;;;16.10;37.65;94590.25;4953016;29;20566;-70
2022/02/17 09:51:52;;;;;;;50.57;33.50;;;;;;;16.38;37.54;94580.41;4952133;29;20814;-71
2022/02/17 09:54:21;;;;;;;50.53;34.97;;;;;;;16.81;37.19;94584.19;4950940;29;20483;-69
2022/02/17 09:56:49;;;;;;;51.53;33.50;;;;;;;17.34;36.08;94568.28;4951390;29;20554;-70
2022/02/17 09:59:18;;;;;;;44.20;31.53;;;;;;;17.13;35.78;94565.38;4951211;29;20435;-70
2022/02/17 10:01:53;;;;;;;50.87;33.97;;;;;;;17.08;35.18;94562.88;4951857;29;20930;-70
2022/02/17 10:04:24;;;;;;;51.13;32.30;;;;;;;17.08;35.11;94557.56;4950897;29;20454;-69
2022/02/17 10:06:58;;;;;;;48.57;33.83;;;;;;;17.32;35.55;94543.22;4951843;29;20813;-70
2022/02/17 10:09:40;;;;;;;46.60;33.20;;;;;;;17.63;35.09;94546.59;4951101;29;20927;-70
2022/02/17 10:12:11;;;;;;;38.63;30.40;;;;;;;17.87;35.15;94549.63;4951008;29;20458;-69
2022/02/17 10:14:39;;;;;;;54.13;33.20;;;;;;;17.91;35.24;94537.34;4951051;29;20571;-70
2022/02/17 10:17:11;;;;;;;44.80;33.57;;;;;;;17.77;34.59;94529.50;4951884;29;20443;-70
2022/02/17 10:19:49;;;;;;;54.13;33.37;;;;;;;17.75;34.83;94528.25;4951498;29;20451;-70
2022/02/17 10:22:22;;;;;;;51.63;33.63;;;;;;;18.01;34.97;94521.16;4953152;29;20494;-69
2022/02/17 10:24:52;;;;;;;55.50;35.70;;;;;;;17.65;35.46;94523.22;4951972;29;20970;-70
2022/02/17 10:27:22;;;;;;;57.27;34.13;;;;;;;18.04;33.97;94512.56;4952375;29;20450;-71
2022/02/17 10:30:13;;;;;;;53.70;34.47;;;;;;;18.32;33.39;94508.50;4952385;29;20518;-72
2022/02/17 10:33:00;;;;;;;50.47;34.00;;;;;;;18.51;34.04;94502.91;4951113;29;20436;-71
2022/02/17 10:35:28;;;;;;;44.73;32.53;;;;;;;17.89;33.39;94508.50;4950642;29;20502;-69
2022/02/17 10:37:57;;;;;;;51.13;33.73;;;;;;;17.54;33.66;94500.75;4951021;29;21017;-70
2022/02/17 10:40:26;;;;;;;44.87;33.40;;;;;;;17.74;33.83;94492.25;4950764;29;20448;-69
2022/02/17 10:43:11;;;;;;;47.77;33.53;;;;;;;18.06;33.96;94486.53;4951263;29;20435;-71
2022/02/17 10:45:42;;;;;;;48.63;34.77;;;;;;;17.55;34.43;94478.50;4950844;29;20447;-70
2022/02/17 10:48:22;;;;;;;105.90;76.97;;;;;;;18.07;34.48;94477.47;4950928;29;20462;-69
2022/02/17 10:51:16;;;;;;;45.27;32.73;;;;;;;18.74;33.78;94449.31;4951312;29;20487;-70
2022/02/17 10:53:47;;;;;;;49.00;34.27;;;;;;;18.87;33.20;94448.34;4950641;29;20455;-69
2022/02/17 10:56:22;;;;;;;48.80;34.53;;;;;;;19.02;32.93;94439.88;4950601;29;20527;-70
2022/02/17 10:58:50;;;;;;;46.87;31.60;;;;;;;18.22;33.79;94442.53;4950784;29;20446;-69
2022/02/17 11:01:20;;;;;;;46.23;30.17;;;;;;;18.44;32.56;94429.13;4950922;29;20435;-70
2022/02/17 11:03:48;;;;;;;41.17;30.80;;;;;;;18.45;33.50;94420.06;4950593;29;20471;-69
2022/02/17 11:06:17;;;;;;;51.43;31.87;;;;;;;18.27;33.48;94417.72;4951020;29;20443;-70
2022/02/17 11:08:49;;;;;;;41.77;29.80;;;;;;;17.84;34.06;94417.75;4950297;29;20809;-71
2022/02/17 11:11:18;;;;;;;43.67;30.00;;;;;;;18.04;33.92;94409.16;4950935;29;20447;-70
2022/02/17 11:13:47;;;;;;;46.13;30.07;;;;;;;18.02;34.58;94406.84;4950153;29;20471;-71
2022/02/17 11:16:21;;;;;;;40.23;29.37;;;;;;;18.41;33.88;94403.19;4950946;29;20450;-71
2022/02/17 11:18:52;;;;;;;43.80;29.10;;;;;;;18.65;34.02;94402.69;4950357;29;20448;-72
2022/02/17 11:21:19;;;;;;;42.13;27.57;;;;;;;17.87;33.56;94387.97;4950763;29;20439;-70
2022/02/17 11:23:46;;;;;;;37.93;25.57;;;;;;;17.85;33.91;94384.84;4949967;29;20444;-71
2022/02/17 11:26:28;;;;;;;39.70;25.87;;;;;;;18.28;33.29;94390.91;4951336;29;20439;-70
2022/02/17 11:29:17;;;;;;;42.37;25.37;;;;;;;18.48;33.63;94384.94;4950521;29;20458;-70
2022/02/17 11:31:59;;;;;;;39.67;24.80;;;;;;;18.72;32.46;94334.72;4954594;29;20744;-69
2022/02/17 11:34:46;;;;;;;37.77;23.57;;;;;;;19.41;32.81;94366.25;4950028;29;21065;-70
2022/02/17 11:37:28;;;;;;;36.43;25.10;;;;;;;19.54;32.38;94354.63;4950336;28;20989;-70